sensor_id;sensor_type;location;lat;lon;timestamp;P1;durP1;ratioP1;P2;durP2;ratioP2
21550;SDS011;10936;49.836;7.078;2022-08-01T05:02:02;1.00;;;0.77;;
21550;SDS011;10936;49.836;7.078;2022-08-01T05:04:27;0.80;;;0.80;;
21550;SDS011;10936;49.836;7.078;2022-08-01T05:06:53;2.15;;;0.60;;
21550;SDS011;10936;49.836;7.078;2022-08-01T05:09:19;0.80;;;0.80;;
21550;SDS011;10936;49.836;7.078;2022-08-01T05:11:45;1.15;;;0.70;;
21550;SDS011;10936;49.836;7.078;2022-08-01T05:14:11;0.77;;;0.77;;
21550;SDS011;10936;49.836;7.078;2022-08-01T05:16:36;1.30;;;0.90;;
21550;SDS011;10936;49.836;7.078;2022-08-01T05:19:02;2.75;;;0.80;;
21550;SDS011;10936;49.836;7.078;2022-08-01T05:21:27;0.60;;;0.60;;
21550;SDS011;10936;49.836;7.078;2022-08-01T05:23:53;1.35;;;0.90;;
21550;SDS011;10936;49.836;7.078;2022-08-01T05:26:19;1.67;;;1.00;;
21550;SDS011;10936;49.836;7.078;2022-08-01T05:28:44;0.65;;;0.65;;
21550;SDS011;10936;49.836;7.078;2022-08-01T05:31:10;2.45;;;1.00;;
21550;SDS011;10936;49.836;7.078;2022-08-01T05:33:36;1.20;;;0.60;;
21550;SDS011;10936;49.836;7.078;2022-08-01T05:36:01;0.80;;;0.75;;
21550;SDS011;10936;49.836;7.078;2022-08-01T05:38:27;0.82;;;0.75;;
21550;SDS011;10936;49.836;7.078;2022-08-01T05:40:53;1.17;;;0.93;;
21550;SDS011;10936;49.836;7.078;2022-08-01T05:43:18;0.63;;;0.63;;
21550;SDS011;10936;49.836;7.078;2022-08-01T05:45:44;1.20;;;0.75;;
21550;SDS011;10936;49.836;7.078;2022-08-01T05:48:10;1.73;;;0.88;;
21550;SDS011;10936;49.836;7.078;2022-08-01T05:50:36;0.80;;;0.70;;
21550;SDS011;10936;49.836;7.078;2022-08-01T05:53:02;0.82;;;0.60;;
21550;SDS011;10936;49.836;7.078;2022-08-01T05:55:28;0.80;;;0.70;;
21550;SDS011;10936;49.836;7.078;2022-08-01T05:57:53;0.82;;;0.60;;
21550;SDS011;10936;49.836;7.078;2022-08-01T06:00:19;0.70;;;0.70;;
21550;SDS011;10936;49.836;7.078;2022-08-01T06:02:44;0.93;;;0.70;;
21550;SDS011;10936;49.836;7.078;2022-08-01T06:05:10;0.80;;;0.80;;
21550;SDS011;10936;49.836;7.078;2022-08-01T06:07:36;2.47;;;0.70;;
21550;SDS011;10936;49.836;7.078;2022-08-01T06:10:03;1.67;;;0.80;;
21550;SDS011;10936;49.836;7.078;2022-08-01T06:12:32;0.80;;;0.60;;
21550;SDS011;10936;49.836;7.078;2022-08-01T06:14:58;1.52;;;0.80;;
21550;SDS011;10936;49.836;7.078;2022-08-01T06:17:24;0.65;;;0.65;;
21550;SDS011;10936;49.836;7.078;2022-08-01T06:19:50;1.00;;;0.80;;
21550;SDS011;10936;49.836;7.078;2022-08-01T06:22:16;1.02;;;0.90;;
21550;SDS011;10936;49.836;7.078;2022-08-01T06:24:41;2.30;;;0.80;;
21550;SDS011;10936;49.836;7.078;2022-08-01T06:27:07;0.80;;;0.70;;
21550;SDS011;10936;49.836;7.078;2022-08-01T06:29:32;0.88;;;0.88;;
21550;SDS011;10936;49.836;7.078;2022-08-01T06:31:59;0.82;;;0.60;;
21550;SDS011;10936;49.836;7.078;2022-08-01T06:34:25;0.90;;;0.70;;
21550;SDS011;10936;49.836;7.078;2022-08-01T06:36:51;6.10;;;0.95;;
21550;SDS011;10936;49.836;7.078;2022-08-01T06:39:17;2.50;;;0.85;;
21550;SDS011;10936;49.836;7.078;2022-08-01T06:41:42;0.65;;;0.65;;
21550;SDS011;10936;49.836;7.078;2022-08-01T06:44:11;0.95;;;0.93;;
21550;SDS011;10936;49.836;7.078;2022-08-01T06:46:37;1.05;;;0.80;;
21550;SDS011;10936;49.836;7.078;2022-08-01T06:49:03;1.10;;;0.80;;
21550;SDS011;10936;49.836;7.078;2022-08-01T06:51:29;1.00;;;0.80;;
21550;SDS011;10936;49.836;7.078;2022-08-01T06:53:55;1.20;;;0.80;;
21550;SDS011;10936;49.836;7.078;2022-08-01T06:56:20;0.80;;;0.80;;
21550;SDS011;10936;49.836;7.078;2022-08-01T06:58:46;1.77;;;0.70;;
21550;SDS011;10936;49.836;7.078;2022-08-01T07:01:12;1.95;;;0.80;;
21550;SDS011;10936;49.836;7.078;2022-08-01T07:03:38;0.82;;;0.82;;
21550;SDS011;10936;49.836;7.078;2022-08-01T07:06:03;1.55;;;0.93;;
21550;SDS011;10936;49.836;7.078;2022-08-01T07:08:29;1.17;;;1.08;;
21550;SDS011;10936;49.836;7.078;2022-08-01T07:10:55;1.85;;;0.90;;
21550;SDS011;10936;49.836;7.078;2022-08-01T07:13:24;2.50;;;1.00;;
21550;SDS011;10936;49.836;7.078;2022-08-01T07:15:51;0.70;;;0.70;;
21550;SDS011;10936;49.836;7.078;2022-08-01T07:18:17;0.95;;;0.82;;
21550;SDS011;10936;49.836;7.078;2022-08-01T07:20:43;1.10;;;0.80;;
21550;SDS011;10936;49.836;7.078;2022-08-01T07:23:11;1.33;;;1.10;;
21550;SDS011;10936;49.836;7.078;2022-08-01T07:25:37;2.13;;;1.60;;
21550;SDS011;10936;49.836;7.078;2022-08-01T07:28:03;2.35;;;0.82;;
21550;SDS011;10936;49.836;7.078;2022-08-01T07:30:28;2.50;;;0.95;;
21550;SDS011;10936;49.836;7.078;2022-08-01T07:32:54;1.08;;;0.90;;
21550;SDS011;10936;49.836;7.078;2022-08-01T07:35:20;2.08;;;0.93;;
21550;SDS011;10936;49.836;7.078;2022-08-01T07:37:45;1.52;;;0.95;;
21550;SDS011;10936;49.836;7.078;2022-08-01T07:40:11;0.70;;;0.70;;
21550;SDS011;10936;49.836;7.078;2022-08-01T07:42:37;1.83;;;1.02;;
21550;SDS011;10936;49.836;7.078;2022-08-01T07:45:02;0.80;;;0.80;;
21550;SDS011;10936;49.836;7.078;2022-08-01T07:47:28;1.52;;;0.93;;
21550;SDS011;10936;49.836;7.078;2022-08-01T07:50:00;0.93;;;0.80;;
21550;SDS011;10936;49.836;7.078;2022-08-01T07:52:27;0.93;;;0.90;;
21550;SDS011;10936;49.836;7.078;2022-08-01T07:54:53;1.08;;;0.82;;
21550;SDS011;10936;49.836;7.078;2022-08-01T07:57:21;1.63;;;0.90;;
21550;SDS011;10936;49.836;7.078;2022-08-01T07:59:47;2.95;;;0.98;;
21550;SDS011;10936;49.836;7.078;2022-08-01T08:02:12;1.13;;;0.80;;
21550;SDS011;10936;49.836;7.078;2022-08-01T08:04:38;3.63;;;1.00;;
21550;SDS011;10936;49.836;7.078;2022-08-01T08:07:04;0.80;;;0.80;;
21550;SDS011;10936;49.836;7.078;2022-08-01T08:09:29;1.40;;;0.95;;
21550;SDS011;10936;49.836;7.078;2022-08-01T08:11:55;0.80;;;0.80;;
21550;SDS011;10936;49.836;7.078;2022-08-01T08:14:21;0.90;;;0.90;;
21550;SDS011;10936;49.836;7.078;2022-08-01T08:16:47;1.00;;;0.90;;
21550;SDS011;10936;49.836;7.078;2022-08-01T08:19:13;1.33;;;0.98;;
21550;SDS011;10936;49.836;7.078;2022-08-01T08:21:39;1.67;;;0.90;;
21550;SDS011;10936;49.836;7.078;2022-08-01T08:24:05;0.95;;;0.95;;
21550;SDS011;10936;49.836;7.078;2022-08-01T08:26:49;1.40;;;0.90;;
21550;SDS011;10936;49.836;7.078;2022-08-01T08:29:17;1.02;;;0.98;;
21550;SDS011;10936;49.836;7.078;2022-08-01T08:31:44;1.05;;;0.95;;
21550;SDS011;10936;49.836;7.078;2022-08-01T08:34:10;2.55;;;0.90;;
21550;SDS011;10936;49.836;7.078;2022-08-01T08:36:36;1.10;;;0.90;;
21550;SDS011;10936;49.836;7.078;2022-08-01T08:39:02;2.35;;;1.13;;
21550;SDS011;10936;49.836;7.078;2022-08-01T08:41:34;1.38;;;1.00;;
21550;SDS011;10936;49.836;7.078;2022-08-01T08:44:01;1.20;;;1.10;;
21550;SDS011;10936;49.836;7.078;2022-08-01T08:46:28;1.45;;;1.10;;
21550;SDS011;10936;49.836;7.078;2022-08-01T08:48:57;1.17;;;1.08;;
21550;SDS011;10936;49.836;7.078;2022-08-01T08:51:25;1.85;;;1.00;;
21550;SDS011;10936;49.836;7.078;2022-08-01T08:53:56;1.50;;;0.93;;
21550;SDS011;10936;49.836;7.078;2022-08-01T08:56:23;0.93;;;0.90;;
21550;SDS011;10936;49.836;7.078;2022-08-01T08:58:50;1.00;;;1.00;;
21550;SDS011;10936;49.836;7.078;2022-08-01T09:01:16;0.75;;;0.75;;
21550;SDS011;10936;49.836;7.078;2022-08-01T09:03:42;1.38;;;1.27;;
21550;SDS011;10936;49.836;7.078;2022-08-01T09:06:08;1.05;;;0.95;;
21550;SDS011;10936;49.836;7.078;2022-08-01T09:08:35;1.65;;;1.30;;
21550;SDS011;10936;49.836;7.078;2022-08-01T09:11:01;0.80;;;0.80;;
21550;SDS011;10936;49.836;7.078;2022-08-01T09:13:26;1.25;;;0.95;;
21550;SDS011;10936;49.836;7.078;2022-08-01T09:15:53;1.00;;;0.93;;
21550;SDS011;10936;49.836;7.078;2022-08-01T09:23:39;0.80;;;0.80;;
21550;SDS011;10936;49.836;7.078;2022-08-01T09:26:10;1.00;;;0.90;;
21550;SDS011;10936;49.836;7.078;2022-08-01T09:28:37;0.88;;;0.80;;
21550;SDS011;10936;49.836;7.078;2022-08-01T09:31:07;2.65;;;0.80;;
21550;SDS011;10936;49.836;7.078;2022-08-01T09:36:17;1.02;;;0.65;;
21550;SDS011;10936;49.836;7.078;2022-08-01T09:38:51;0.80;;;0.80;;
21550;SDS011;10936;49.836;7.078;2022-08-01T09:41:28;0.80;;;0.80;;
21550;SDS011;10936;49.836;7.078;2022-08-01T09:43:56;0.90;;;0.85;;
21550;SDS011;10936;49.836;7.078;2022-08-01T09:46:22;1.75;;;0.88;;
21550;SDS011;10936;49.836;7.078;2022-08-01T09:48:58;0.90;;;0.90;;
21550;SDS011;10936;49.836;7.078;2022-08-01T09:51:31;0.90;;;0.90;;
21550;SDS011;10936;49.836;7.078;2022-08-01T09:54:05;1.25;;;0.93;;
21550;SDS011;10936;49.836;7.078;2022-08-01T09:56:38;1.02;;;0.90;;
21550;SDS011;10936;49.836;7.078;2022-08-01T09:59:05;0.75;;;0.68;;
21550;SDS011;10936;49.836;7.078;2022-08-01T10:01:52;0.90;;;0.80;;
21550;SDS011;10936;49.836;7.078;2022-08-01T10:04:18;1.15;;;0.75;;
21550;SDS011;10936;49.836;7.078;2022-08-01T10:06:47;0.98;;;0.90;;
21550;SDS011;10936;49.836;7.078;2022-08-01T10:09:27;0.98;;;0.88;;
21550;SDS011;10936;49.836;7.078;2022-08-01T10:11:54;0.75;;;0.70;;
21550;SDS011;10936;49.836;7.078;2022-08-01T10:14:22;1.40;;;1.08;;
21550;SDS011;10936;49.836;7.078;2022-08-01T10:16:51;0.70;;;0.70;;
21550;SDS011;10936;49.836;7.078;2022-08-01T10:19:18;0.80;;;0.70;;
21550;SDS011;10936;49.836;7.078;2022-08-01T10:21:48;0.80;;;0.80;;
21550;SDS011;10936;49.836;7.078;2022-08-01T10:24:21;0.90;;;0.90;;
21550;SDS011;10936;49.836;7.078;2022-08-01T10:26:50;0.80;;;0.80;;
21550;SDS011;10936;49.836;7.078;2022-08-01T10:29:17;1.55;;;1.00;;
21550;SDS011;10936;49.836;7.078;2022-08-01T10:31:48;0.82;;;0.70;;
21550;SDS011;10936;49.836;7.078;2022-08-01T10:34:14;0.95;;;0.90;;
21550;SDS011;10936;49.836;7.078;2022-08-01T10:36:44;0.90;;;0.70;;
21550;SDS011;10936;49.836;7.078;2022-08-01T10:39:11;0.60;;;0.60;;
21550;SDS011;10936;49.836;7.078;2022-08-01T10:41:38;1.10;;;1.00;;
21550;SDS011;10936;49.836;7.078;2022-08-01T10:44:06;1.08;;;0.80;;
21550;SDS011;10936;49.836;7.078;2022-08-01T10:46:33;0.80;;;0.80;;
21550;SDS011;10936;49.836;7.078;2022-08-01T10:49:12;1.38;;;0.90;;
21550;SDS011;10936;49.836;7.078;2022-08-01T10:51:40;0.80;;;0.70;;
21550;SDS011;10936;49.836;7.078;2022-08-01T10:54:07;0.80;;;0.70;;
21550;SDS011;10936;49.836;7.078;2022-08-01T10:56:47;1.17;;;0.80;;
21550;SDS011;10936;49.836;7.078;2022-08-01T10:59:35;0.73;;;0.73;;
21550;SDS011;10936;49.836;7.078;2022-08-01T11:02:05;1.02;;;0.80;;
21550;SDS011;10936;49.836;7.078;2022-08-01T11:07:07;1.25;;;0.63;;
21550;SDS011;10936;49.836;7.078;2022-08-01T11:14:34;0.77;;;0.70;;
21550;SDS011;10936;49.836;7.078;2022-08-01T11:17:35;0.70;;;0.70;;
21550;SDS011;10936;49.836;7.078;2022-08-01T11:25:22;0.82;;;0.77;;
21550;SDS011;10936;49.836;7.078;2022-08-01T11:27:48;0.75;;;0.75;;
21550;SDS011;10936;49.836;7.078;2022-08-01T11:30:34;0.90;;;0.90;;
21550;SDS011;10936;49.836;7.078;2022-08-01T11:32:59;0.80;;;0.80;;
21550;SDS011;10936;49.836;7.078;2022-08-01T11:35:25;0.88;;;0.70;;
21550;SDS011;10936;49.836;7.078;2022-08-01T11:37:53;0.70;;;0.70;;
21550;SDS011;10936;49.836;7.078;2022-08-01T11:40:28;0.85;;;0.80;;
21550;SDS011;10936;49.836;7.078;2022-08-01T11:45:51;1.33;;;0.77;;
21550;SDS011;10936;49.836;7.078;2022-08-01T11:48:20;1.00;;;0.70;;
21550;SDS011;10936;49.836;7.078;2022-08-01T11:50:47;0.73;;;0.70;;
21550;SDS011;10936;49.836;7.078;2022-08-01T11:53:15;0.70;;;0.70;;
21550;SDS011;10936;49.836;7.078;2022-08-01T11:55:48;0.70;;;0.70;;
21550;SDS011;10936;49.836;7.078;2022-08-01T11:58:15;0.85;;;0.85;;
21550;SDS011;10936;49.836;7.078;2022-08-01T12:00:52;0.80;;;0.80;;
21550;SDS011;10936;49.836;7.078;2022-08-01T12:03:26;0.88;;;0.80;;
21550;SDS011;10936;49.836;7.078;2022-08-01T12:05:57;0.75;;;0.75;;
21550;SDS011;10936;49.836;7.078;2022-08-01T12:08:32;0.60;;;0.60;;
21550;SDS011;10936;49.836;7.078;2022-08-01T12:11:00;0.85;;;0.80;;
21550;SDS011;10936;49.836;7.078;2022-08-01T12:13:27;0.80;;;0.80;;
21550;SDS011;10936;49.836;7.078;2022-08-01T12:16:07;0.85;;;0.60;;
21550;SDS011;10936;49.836;7.078;2022-08-01T12:18:37;0.75;;;0.75;;
21550;SDS011;10936;49.836;7.078;2022-08-01T12:21:07;0.80;;;0.80;;
21550;SDS011;10936;49.836;7.078;2022-08-01T12:23:33;0.80;;;0.80;;
21550;SDS011;10936;49.836;7.078;2022-08-01T12:25:59;1.35;;;0.93;;
21550;SDS011;10936;49.836;7.078;2022-08-01T12:28:25;0.82;;;0.82;;
21550;SDS011;10936;49.836;7.078;2022-08-01T12:30:51;1.02;;;0.85;;
21550;SDS011;10936;49.836;7.078;2022-08-01T12:33:17;0.80;;;0.70;;
21550;SDS011;10936;49.836;7.078;2022-08-01T12:35:44;0.95;;;0.70;;
21550;SDS011;10936;49.836;7.078;2022-08-01T12:38:19;0.75;;;0.75;;
21550;SDS011;10936;49.836;7.078;2022-08-01T12:40:50;0.70;;;0.70;;
21550;SDS011;10936;49.836;7.078;2022-08-01T12:43:16;1.20;;;0.80;;
21550;SDS011;10936;49.836;7.078;2022-08-01T12:45:44;0.80;;;0.80;;
21550;SDS011;10936;49.836;7.078;2022-08-01T12:48:12;0.80;;;0.80;;
21550;SDS011;10936;49.836;7.078;2022-08-01T12:50:42;0.63;;;0.63;;
21550;SDS011;10936;49.836;7.078;2022-08-01T12:53:09;0.70;;;0.70;;
21550;SDS011;10936;49.836;7.078;2022-08-01T12:55:45;0.88;;;0.85;;
21550;SDS011;10936;49.836;7.078;2022-08-01T12:58:13;1.48;;;0.80;;
21550;SDS011;10936;49.836;7.078;2022-08-01T13:00:40;0.80;;;0.80;;
21550;SDS011;10936;49.836;7.078;2022-08-01T13:03:10;0.80;;;0.80;;
21550;SDS011;10936;49.836;7.078;2022-08-01T13:05:46;0.63;;;0.63;;
21550;SDS011;10936;49.836;7.078;2022-08-01T13:08:19;0.80;;;0.80;;
21550;SDS011;10936;49.836;7.078;2022-08-01T13:11:10;1.17;;;0.85;;
21550;SDS011;10936;49.836;7.078;2022-08-01T13:13:45;0.70;;;0.70;;
21550;SDS011;10936;49.836;7.078;2022-08-01T13:16:12;0.70;;;0.70;;
21550;SDS011;10936;49.836;7.078;2022-08-01T13:18:38;0.70;;;0.70;;
21550;SDS011;10936;49.836;7.078;2022-08-01T13:21:14;0.65;;;0.65;;
21550;SDS011;10936;49.836;7.078;2022-08-01T13:29:10;1.02;;;0.77;;
21550;SDS011;10936;49.836;7.078;2022-08-01T13:31:38;0.80;;;0.80;;
21550;SDS011;10936;49.836;7.078;2022-08-01T13:34:05;0.70;;;0.70;;
21550;SDS011;10936;49.836;7.078;2022-08-01T13:36:31;1.05;;;0.80;;
21550;SDS011;10936;49.836;7.078;2022-08-01T13:38:57;0.80;;;0.70;;
21550;SDS011;10936;49.836;7.078;2022-08-01T13:41:42;0.73;;;0.60;;
21550;SDS011;10936;49.836;7.078;2022-08-01T13:44:09;0.70;;;0.70;;
21550;SDS011;10936;49.836;7.078;2022-08-01T13:46:36;0.80;;;0.80;;
21550;SDS011;10936;49.836;7.078;2022-08-01T13:49:03;0.70;;;0.70;;
21550;SDS011;10936;49.836;7.078;2022-08-01T13:51:29;1.40;;;0.98;;
21550;SDS011;10936;49.836;7.078;2022-08-01T13:53:55;0.70;;;0.70;;
21550;SDS011;10936;49.836;7.078;2022-08-01T13:56:22;0.85;;;0.82;;
21550;SDS011;10936;49.836;7.078;2022-08-01T13:58:48;0.80;;;0.70;;
21550;SDS011;10936;49.836;7.078;2022-08-01T14:01:14;0.80;;;0.80;;
21550;SDS011;10936;49.836;7.078;2022-08-01T14:03:40;0.70;;;0.70;;
21550;SDS011;10936;49.836;7.078;2022-08-01T14:06:05;1.63;;;1.17;;
21550;SDS011;10936;49.836;7.078;2022-08-01T14:08:31;0.73;;;0.73;;
21550;SDS011;10936;49.836;7.078;2022-08-01T14:10:57;0.73;;;0.68;;
21550;SDS011;10936;49.836;7.078;2022-08-01T14:13:26;0.70;;;0.70;;
21550;SDS011;10936;49.836;7.078;2022-08-01T14:15:52;0.90;;;0.82;;
21550;SDS011;10936;49.836;7.078;2022-08-01T14:18:19;1.25;;;0.70;;
21550;SDS011;10936;49.836;7.078;2022-08-01T14:20:44;0.57;;;0.57;;
21550;SDS011;10936;49.836;7.078;2022-08-01T14:23:10;0.70;;;0.70;;
21550;SDS011;10936;49.836;7.078;2022-08-01T14:25:36;0.70;;;0.70;;
21550;SDS011;10936;49.836;7.078;2022-08-01T14:28:03;0.80;;;0.70;;
21550;SDS011;10936;49.836;7.078;2022-08-01T14:30:28;0.90;;;0.90;;
21550;SDS011;10936;49.836;7.078;2022-08-01T14:32:54;0.77;;;0.75;;
21550;SDS011;10936;49.836;7.078;2022-08-01T14:35:20;0.75;;;0.75;;
21550;SDS011;10936;49.836;7.078;2022-08-01T14:37:46;0.85;;;0.77;;
21550;SDS011;10936;49.836;7.078;2022-08-01T14:40:12;1.00;;;0.80;;
21550;SDS011;10936;49.836;7.078;2022-08-01T14:42:38;1.80;;;1.05;;
21550;SDS011;10936;49.836;7.078;2022-08-01T14:45:05;1.17;;;1.08;;
21550;SDS011;10936;49.836;7.078;2022-08-01T14:47:40;0.80;;;0.80;;
21550;SDS011;10936;49.836;7.078;2022-08-01T14:50:10;1.25;;;0.85;;
21550;SDS011;10936;49.836;7.078;2022-08-01T14:52:37;0.90;;;0.90;;
21550;SDS011;10936;49.836;7.078;2022-08-01T14:55:04;0.93;;;0.82;;
21550;SDS011;10936;49.836;7.078;2022-08-01T14:57:31;0.77;;;0.77;;
21550;SDS011;10936;49.836;7.078;2022-08-01T14:59:57;1.15;;;1.00;;
21550;SDS011;10936;49.836;7.078;2022-08-01T15:02:23;1.15;;;0.95;;
21550;SDS011;10936;49.836;7.078;2022-08-01T15:04:49;2.22;;;0.70;;
21550;SDS011;10936;49.836;7.078;2022-08-01T15:07:15;1.45;;;0.65;;
21550;SDS011;10936;49.836;7.078;2022-08-01T15:09:42;0.70;;;0.70;;
21550;SDS011;10936;49.836;7.078;2022-08-01T15:12:09;1.77;;;1.00;;
21550;SDS011;10936;49.836;7.078;2022-08-01T15:14:35;0.80;;;0.80;;
21550;SDS011;10936;49.836;7.078;2022-08-01T15:17:28;1.63;;;0.95;;
21550;SDS011;10936;49.836;7.078;2022-08-01T15:19:56;1.50;;;1.05;;
21550;SDS011;10936;49.836;7.078;2022-08-01T15:22:23;1.20;;;0.98;;
21550;SDS011;10936;49.836;7.078;2022-08-01T15:24:50;0.82;;;0.82;;
21550;SDS011;10936;49.836;7.078;2022-08-01T15:27:18;0.70;;;0.70;;
21550;SDS011;10936;49.836;7.078;2022-08-01T15:29:44;1.33;;;1.08;;
21550;SDS011;10936;49.836;7.078;2022-08-01T15:32:10;3.30;;;1.10;;
21550;SDS011;10936;49.836;7.078;2022-08-01T15:34:36;1.10;;;1.00;;
21550;SDS011;10936;49.836;7.078;2022-08-01T15:37:03;2.58;;;1.05;;
21550;SDS011;10936;49.836;7.078;2022-08-01T15:39:30;3.97;;;1.30;;
21550;SDS011;10936;49.836;7.078;2022-08-01T15:41:58;3.20;;;1.30;;
21550;SDS011;10936;49.836;7.078;2022-08-01T15:44:24;1.88;;;1.00;;
21550;SDS011;10936;49.836;7.078;2022-08-01T15:46:50;2.50;;;1.20;;
21550;SDS011;10936;49.836;7.078;2022-08-01T15:49:16;2.53;;;1.20;;
21550;SDS011;10936;49.836;7.078;2022-08-01T15:51:42;4.28;;;1.42;;
21550;SDS011;10936;49.836;7.078;2022-08-01T15:54:09;3.30;;;1.30;;
21550;SDS011;10936;49.836;7.078;2022-08-01T15:56:35;3.85;;;1.20;;
21550;SDS011;10936;49.836;7.078;2022-08-01T15:59:02;1.48;;;1.02;;
21550;SDS011;10936;49.836;7.078;2022-08-01T16:01:28;3.35;;;1.20;;
21550;SDS011;10936;49.836;7.078;2022-08-01T16:03:55;3.58;;;1.13;;
21550;SDS011;10936;49.836;7.078;2022-08-01T16:06:22;2.03;;;1.02;;
21550;SDS011;10936;49.836;7.078;2022-08-01T16:08:48;2.13;;;1.10;;
21550;SDS011;10936;49.836;7.078;2022-08-01T16:11:15;1.27;;;1.10;;
21550;SDS011;10936;49.836;7.078;2022-08-01T16:13:41;1.50;;;1.08;;
21550;SDS011;10936;49.836;7.078;2022-08-01T16:16:07;1.60;;;1.20;;
21550;SDS011;10936;49.836;7.078;2022-08-01T16:18:33;1.38;;;1.02;;
21550;SDS011;10936;49.836;7.078;2022-08-01T16:20:59;2.13;;;1.30;;
21550;SDS011;10936;49.836;7.078;2022-08-01T16:23:24;1.85;;;1.10;;
21550;SDS011;10936;49.836;7.078;2022-08-01T16:25:50;3.72;;;1.13;;
21550;SDS011;10936;49.836;7.078;2022-08-01T16:28:17;1.77;;;1.00;;
21550;SDS011;10936;49.836;7.078;2022-08-01T16:30:44;1.95;;;1.10;;
21550;SDS011;10936;49.836;7.078;2022-08-01T16:33:10;1.30;;;1.20;;
21550;SDS011;10936;49.836;7.078;2022-08-01T16:35:36;2.28;;;1.20;;
21550;SDS011;10936;49.836;7.078;2022-08-01T16:38:03;3.53;;;1.02;;
21550;SDS011;10936;49.836;7.078;2022-08-01T16:40:30;1.73;;;1.10;;
21550;SDS011;10936;49.836;7.078;2022-08-01T16:42:56;2.63;;;1.30;;
21550;SDS011;10936;49.836;7.078;2022-08-01T16:45:22;2.75;;;1.02;;
21550;SDS011;10936;49.836;7.078;2022-08-01T16:47:47;1.95;;;0.80;;
21550;SDS011;10936;49.836;7.078;2022-08-01T16:50:13;1.55;;;1.10;;
21550;SDS011;10936;49.836;7.078;2022-08-01T16:52:39;2.47;;;1.00;;
21550;SDS011;10936;49.836;7.078;2022-08-01T16:55:05;1.40;;;1.02;;
21550;SDS011;10936;49.836;7.078;2022-08-01T16:57:31;2.83;;;1.10;;
21550;SDS011;10936;49.836;7.078;2022-08-01T17:00:07;2.85;;;1.40;;
21550;SDS011;10936;49.836;7.078;2022-08-01T17:02:35;3.10;;;1.15;;
21550;SDS011;10936;49.836;7.078;2022-08-01T17:05:02;2.10;;;0.98;;
21550;SDS011;10936;49.836;7.078;2022-08-01T17:07:29;2.15;;;1.13;;
21550;SDS011;10936;49.836;7.078;2022-08-01T17:09:55;1.23;;;1.13;;
21550;SDS011;10936;49.836;7.078;2022-08-01T17:12:21;1.95;;;1.00;;
21550;SDS011;10936;49.836;7.078;2022-08-01T17:14:47;2.08;;;1.15;;
21550;SDS011;10936;49.836;7.078;2022-08-01T17:17:13;2.47;;;1.38;;
21550;SDS011;10936;49.836;7.078;2022-08-01T17:19:38;1.55;;;1.45;;
21550;SDS011;10936;49.836;7.078;2022-08-01T17:22:04;1.48;;;1.20;;
21550;SDS011;10936;49.836;7.078;2022-08-01T17:24:30;1.10;;;0.90;;
21550;SDS011;10936;49.836;7.078;2022-08-01T17:26:56;2.35;;;1.00;;
21550;SDS011;10936;49.836;7.078;2022-08-01T17:29:21;1.48;;;1.08;;
21550;SDS011;10936;49.836;7.078;2022-08-01T17:31:47;2.55;;;1.08;;
21550;SDS011;10936;49.836;7.078;2022-08-01T17:34:13;1.00;;;0.90;;
21550;SDS011;10936;49.836;7.078;2022-08-01T17:36:39;1.52;;;1.00;;
21550;SDS011;10936;49.836;7.078;2022-08-01T17:39:05;1.90;;;0.93;;
21550;SDS011;10936;49.836;7.078;2022-08-01T17:41:32;1.30;;;1.10;;
21550;SDS011;10936;49.836;7.078;2022-08-01T17:43:58;1.58;;;1.02;;
21550;SDS011;10936;49.836;7.078;2022-08-01T17:46:24;1.58;;;1.10;;
21550;SDS011;10936;49.836;7.078;2022-08-01T17:48:50;1.10;;;0.90;;
21550;SDS011;10936;49.836;7.078;2022-08-01T17:51:15;1.30;;;1.10;;
21550;SDS011;10936;49.836;7.078;2022-08-01T17:53:42;3.10;;;1.05;;
21550;SDS011;10936;49.836;7.078;2022-08-01T17:56:08;1.40;;;1.02;;
21550;SDS011;10936;49.836;7.078;2022-08-01T17:58:33;3.17;;;1.17;;
21550;SDS011;10936;49.836;7.078;2022-08-01T18:00:59;1.85;;;1.10;;
21550;SDS011;10936;49.836;7.078;2022-08-01T18:03:25;1.77;;;1.15;;
21550;SDS011;10936;49.836;7.078;2022-08-01T18:05:51;1.35;;;0.90;;
21550;SDS011;10936;49.836;7.078;2022-08-01T18:08:16;2.15;;;1.20;;
21550;SDS011;10936;49.836;7.078;2022-08-01T18:10:42;1.40;;;1.00;;
21550;SDS011;10936;49.836;7.078;2022-08-01T18:13:08;2.28;;;1.20;;
21550;SDS011;10936;49.836;7.078;2022-08-01T18:15:34;2.58;;;1.08;;
21550;SDS011;10936;49.836;7.078;2022-08-01T18:18:01;1.17;;;0.98;;
21550;SDS011;10936;49.836;7.078;2022-08-01T18:20:27;2.00;;;1.00;;
21550;SDS011;10936;49.836;7.078;2022-08-01T18:22:53;1.83;;;1.15;;
21550;SDS011;10936;49.836;7.078;2022-08-01T18:25:18;1.55;;;1.27;;
21550;SDS011;10936;49.836;7.078;2022-08-01T18:27:44;2.03;;;1.23;;
21550;SDS011;10936;49.836;7.078;2022-08-01T18:30:10;1.30;;;1.20;;
21550;SDS011;10936;49.836;7.078;2022-08-01T18:32:36;1.60;;;1.17;;
21550;SDS011;10936;49.836;7.078;2022-08-01T18:35:02;0.98;;;0.93;;
21550;SDS011;10936;49.836;7.078;2022-08-01T18:37:28;1.30;;;1.10;;
21550;SDS011;10936;49.836;7.078;2022-08-01T18:39:53;3.10;;;1.10;;
21550;SDS011;10936;49.836;7.078;2022-08-01T18:42:19;1.95;;;1.23;;
21550;SDS011;10936;49.836;7.078;2022-08-01T18:44:45;1.95;;;1.00;;
21550;SDS011;10936;49.836;7.078;2022-08-01T18:47:10;1.45;;;1.20;;
21550;SDS011;10936;49.836;7.078;2022-08-01T18:49:36;1.38;;;1.13;;
21550;SDS011;10936;49.836;7.078;2022-08-01T18:52:02;1.80;;;1.30;;
21550;SDS011;10936;49.836;7.078;2022-08-01T18:54:28;1.33;;;1.13;;
21550;SDS011;10936;49.836;7.078;2022-08-01T18:56:53;2.40;;;0.90;;
21550;SDS011;10936;49.836;7.078;2022-08-01T18:59:19;1.30;;;1.00;;
21550;SDS011;10936;49.836;7.078;2022-08-01T19:01:45;1.25;;;1.15;;
21550;SDS011;10936;49.836;7.078;2022-08-01T19:04:11;1.10;;;1.00;;
21550;SDS011;10936;49.836;7.078;2022-08-01T19:06:37;1.35;;;1.05;;
21550;SDS011;10936;49.836;7.078;2022-08-01T19:09:03;2.33;;;1.08;;
21550;SDS011;10936;49.836;7.078;2022-08-01T19:11:32;2.72;;;1.20;;
21550;SDS011;10936;49.836;7.078;2022-08-01T19:13:58;1.70;;;1.20;;
21550;SDS011;10936;49.836;7.078;2022-08-01T19:16:24;1.13;;;1.02;;
21550;SDS011;10936;49.836;7.078;2022-08-01T19:18:51;3.75;;;1.08;;
21550;SDS011;10936;49.836;7.078;2022-08-01T19:21:17;1.85;;;1.23;;
21550;SDS011;10936;49.836;7.078;2022-08-01T19:23:42;1.90;;;1.17;;
21550;SDS011;10936;49.836;7.078;2022-08-01T19:26:26;1.58;;;1.25;;
21550;SDS011;10936;49.836;7.078;2022-08-01T19:28:56;1.98;;;1.08;;
21550;SDS011;10936;49.836;7.078;2022-08-01T19:31:25;1.27;;;0.98;;
21550;SDS011;10936;49.836;7.078;2022-08-01T19:33:52;2.22;;;1.13;;
21550;SDS011;10936;49.836;7.078;2022-08-01T19:36:19;2.03;;;1.10;;
21550;SDS011;10936;49.836;7.078;2022-08-01T19:38:46;1.35;;;1.20;;
21550;SDS011;10936;49.836;7.078;2022-08-01T19:41:15;1.10;;;1.00;;
21550;SDS011;10936;49.836;7.078;2022-08-01T19:43:43;1.75;;;1.00;;
21550;SDS011;10936;49.836;7.078;2022-08-01T19:46:09;1.45;;;1.20;;
21550;SDS011;10936;49.836;7.078;2022-08-01T19:48:35;1.42;;;1.02;;
21550;SDS011;10936;49.836;7.078;2022-08-01T19:51:03;1.15;;;1.00;;
21550;SDS011;10936;49.836;7.078;2022-08-01T19:53:37;1.52;;;1.30;;
21550;SDS011;10936;49.836;7.078;2022-08-01T19:56:06;1.30;;;1.20;;
21550;SDS011;10936;49.836;7.078;2022-08-01T19:58:37;1.23;;;1.10;;
21550;SDS011;10936;49.836;7.078;2022-08-01T20:01:06;1.13;;;1.00;;
21550;SDS011;10936;49.836;7.078;2022-08-01T20:03:33;2.92;;;1.00;;
21550;SDS011;10936;49.836;7.078;2022-08-01T20:06:00;1.50;;;1.10;;
21550;SDS011;10936;49.836;7.078;2022-08-01T20:08:29;1.77;;;1.40;;
21550;SDS011;10936;49.836;7.078;2022-08-01T20:10:56;4.13;;;1.35;;
21550;SDS011;10936;49.836;7.078;2022-08-01T20:13:23;2.45;;;1.35;;
21550;SDS011;10936;49.836;7.078;2022-08-01T20:15:48;1.45;;;1.20;;
21550;SDS011;10936;49.836;7.078;2022-08-01T20:18:16;1.38;;;1.20;;
21550;SDS011;10936;49.836;7.078;2022-08-01T20:20:42;1.67;;;1.10;;